sensor_id;sensor_type;location;lat;lon;timestamp;temperature;humidity
1878;DHT22;939;51.426;6.972;2023-02-18T00:00:17;12.00;99.90
1878;DHT22;939;51.426;6.972;2023-02-18T00:03:14;12.00;99.90
1878;DHT22;939;51.426;6.972;2023-02-18T00:05:42;12.10;99.90
1878;DHT22;939;51.426;6.972;2023-02-18T00:08:09;12.00;99.90
1878;DHT22;939;51.426;6.972;2023-02-18T00:10:41;12.00;99.90
1878;DHT22;939;51.426;6.972;2023-02-18T00:13:09;12.00;99.90
1878;DHT22;939;51.426;6.972;2023-02-18T00:15:38;12.00;99.90
1878;DHT22;939;51.426;6.972;2023-02-18T00:18:16;11.90;99.90
1878;DHT22;939;51.426;6.972;2023-02-18T00:20:49;12.00;99.90
1878;DHT22;939;51.426;6.972;2023-02-18T00:23:25;12.00;99.90
1878;DHT22;939;51.426;6.972;2023-02-18T00:26:01;12.00;99.90
1878;DHT22;939;51.426;6.972;2023-02-18T00:28:32;12.00;99.90
1878;DHT22;939;51.426;6.972;2023-02-18T00:31:15;11.90;99.90
1878;DHT22;939;51.426;6.972;2023-02-18T00:33:48;11.90;99.90
1878;DHT22;939;51.426;6.972;2023-02-18T00:36:20;12.00;99.90
1878;DHT22;939;51.426;6.972;2023-02-18T00:39:10;12.00;99.90
1878;DHT22;939;51.426;6.972;2023-02-18T00:41:38;12.00;99.90
1878;DHT22;939;51.426;6.972;2023-02-18T00:44:07;12.00;99.90
1878;DHT22;939;51.426;6.972;2023-02-18T00:46:45;11.90;99.90
1878;DHT22;939;51.426;6.972;2023-02-18T00:49:14;12.00;99.90
1878;DHT22;939;51.426;6.972;2023-02-18T00:51:42;12.00;99.90
1878;DHT22;939;51.426;6.972;2023-02-18T00:54:11;12.00;99.90
1878;DHT22;939;51.426;6.972;2023-02-18T00:56:38;12.00;99.90
1878;DHT22;939;51.426;6.972;2023-02-18T00:59:13;11.90;99.90
1878;DHT22;939;51.426;6.972;2023-02-18T01:01:51;11.90;99.90
1878;DHT22;939;51.426;6.972;2023-02-18T01:04:18;11.80;99.90
1878;DHT22;939;51.426;6.972;2023-02-18T01:06:59;11.80;99.90
1878;DHT22;939;51.426;6.972;2023-02-18T01:09:29;11.80;99.90
1878;DHT22;939;51.426;6.972;2023-02-18T01:11:57;11.80;99.90
1878;DHT22;939;51.426;6.972;2023-02-18T01:14:24;11.70;99.90
1878;DHT22;939;51.426;6.972;2023-02-18T01:16:53;11.70;99.90
1878;DHT22;939;51.426;6.972;2023-02-18T01:19:20;11.70;99.90
1878;DHT22;939;51.426;6.972;2023-02-18T01:21:47;11.60;99.90
1878;DHT22;939;51.426;6.972;2023-02-18T01:24:17;11.60;99.90
1878;DHT22;939;51.426;6.972;2023-02-18T01:26:52;11.70;99.90
1878;DHT22;939;51.426;6.972;2023-02-18T01:29:19;11.60;99.90
1878;DHT22;939;51.426;6.972;2023-02-18T01:32:00;11.70;99.90
1878;DHT22;939;51.426;6.972;2023-02-18T01:34:41;11.70;99.90
1878;DHT22;939;51.426;6.972;2023-02-18T01:37:08;11.70;99.90
1878;DHT22;939;51.426;6.972;2023-02-18T01:39:36;11.70;99.90
1878;DHT22;939;51.426;6.972;2023-02-18T01:42:18;11.70;99.90
1878;DHT22;939;51.426;6.972;2023-02-18T01:44:52;11.70;99.90
1878;DHT22;939;51.426;6.972;2023-02-18T01:47:27;11.70;99.90
1878;DHT22;939;51.426;6.972;2023-02-18T01:49:57;11.70;99.90
1878;DHT22;939;51.426;6.972;2023-02-18T01:52:25;11.70;99.90
1878;DHT22;939;51.426;6.972;2023-02-18T01:54:57;11.60;99.90
1878;DHT22;939;51.426;6.972;2023-02-18T01:57:32;11.70;99.90
1878;DHT22;939;51.426;6.972;2023-02-18T02:00:10;11.70;99.90
1878;DHT22;939;51.426;6.972;2023-02-18T02:02:45;11.70;99.90
1878;DHT22;939;51.426;6.972;2023-02-18T02:05:12;11.70;99.90
1878;DHT22;939;51.426;6.972;2023-02-18T02:08:00;11.70;99.90
1878;DHT22;939;51.426;6.972;2023-02-18T02:10:38;11.70;99.90
1878;DHT22;939;51.426;6.972;2023-02-18T02:13:14;11.70;99.90
1878;DHT22;939;51.426;6.972;2023-02-18T02:15:49;11.70;99.90
1878;DHT22;939;51.426;6.972;2023-02-18T02:18:35;11.70;99.90
1878;DHT22;939;51.426;6.972;2023-02-18T02:21:45;11.70;99.90
1878;DHT22;939;51.426;6.972;2023-02-18T02:27:55;11.70;99.90
1878;DHT22;939;51.426;6.972;2023-02-18T02:30:57;11.60;99.90
1878;DHT22;939;51.426;6.972;2023-02-18T02:36:49;11.60;99.90
1878;DHT22;939;51.426;6.972;2023-02-18T02:39:29;11.60;99.90
1878;DHT22;939;51.426;6.972;2023-02-18T02:42:15;11.70;99.90
1878;DHT22;939;51.426;6.972;2023-02-18T02:45:00;11.70;99.90
1878;DHT22;939;51.426;6.972;2023-02-18T02:47:40;11.80;99.90
1878;DHT22;939;51.426;6.972;2023-02-18T02:50:22;11.70;99.90
1878;DHT22;939;51.426;6.972;2023-02-18T02:52:59;11.70;99.90
1878;DHT22;939;51.426;6.972;2023-02-18T02:55:28;11.70;99.90
1878;DHT22;939;51.426;6.972;2023-02-18T02:58:04;11.70;99.90
1878;DHT22;939;51.426;6.972;2023-02-18T03:00:38;11.80;99.90
1878;DHT22;939;51.426;6.972;2023-02-18T03:03:23;11.70;99.90
1878;DHT22;939;51.426;6.972;2023-02-18T03:09:12;11.60;99.90
1878;DHT22;939;51.426;6.972;2023-02-18T03:11:50;11.70;99.90
1878;DHT22;939;51.426;6.972;2023-02-18T03:14:26;11.70;99.90
1878;DHT22;939;51.426;6.972;2023-02-18T03:17:00;11.70;99.90
1878;DHT22;939;51.426;6.972;2023-02-18T03:19:32;11.70;99.90
1878;DHT22;939;51.426;6.972;2023-02-18T03:22:07;11.70;99.90
1878;DHT22;939;51.426;6.972;2023-02-18T03:24:43;11.70;99.90
1878;DHT22;939;51.426;6.972;2023-02-18T03:27:14;11.60;99.90
1878;DHT22;939;51.426;6.972;2023-02-18T03:29:44;11.60;99.90
1878;DHT22;939;51.426;6.972;2023-02-18T03:32:17;11.60;99.90
1878;DHT22;939;51.426;6.972;2023-02-18T03:34:53;11.50;99.90
1878;DHT22;939;51.426;6.972;2023-02-18T03:37:22;11.50;99.90
1878;DHT22;939;51.426;6.972;2023-02-18T03:39:56;11.50;99.90
1878;DHT22;939;51.426;6.972;2023-02-18T03:42:27;11.60;99.90
1878;DHT22;939;51.426;6.972;2023-02-18T03:44:55;11.60;99.90
1878;DHT22;939;51.426;6.972;2023-02-18T03:47:23;11.50;99.90
1878;DHT22;939;51.426;6.972;2023-02-18T03:49:50;11.40;99.90
1878;DHT22;939;51.426;6.972;2023-02-18T03:52:17;11.40;99.90
1878;DHT22;939;51.426;6.972;2023-02-18T03:54:44;11.40;99.90
1878;DHT22;939;51.426;6.972;2023-02-18T03:57:13;11.40;99.90
1878;DHT22;939;51.426;6.972;2023-02-18T03:59:40;11.40;99.90
1878;DHT22;939;51.426;6.972;2023-02-18T04:02:07;11.40;99.90
1878;DHT22;939;51.426;6.972;2023-02-18T04:04:35;11.40;99.90
1878;DHT22;939;51.426;6.972;2023-02-18T04:07:04;11.40;99.90
1878;DHT22;939;51.426;6.972;2023-02-18T04:09:31;11.40;99.90
1878;DHT22;939;51.426;6.972;2023-02-18T04:11:59;11.50;99.90
1878;DHT22;939;51.426;6.972;2023-02-18T04:14:33;11.30;99.90
1878;DHT22;939;51.426;6.972;2023-02-18T04:17:00;11.30;99.90
1878;DHT22;939;51.426;6.972;2023-02-18T04:19:28;11.30;99.90
1878;DHT22;939;51.426;6.972;2023-02-18T04:21:55;11.30;99.90
1878;DHT22;939;51.426;6.972;2023-02-18T04:24:22;11.40;99.90
1878;DHT22;939;51.426;6.972;2023-02-18T04:26:49;11.40;99.90
1878;DHT22;939;51.426;6.972;2023-02-18T04:29:18;11.30;99.90
1878;DHT22;939;51.426;6.972;2023-02-18T04:31:47;11.40;99.90
1878;DHT22;939;51.426;6.972;2023-02-18T04:34:14;11.40;99.90
1878;DHT22;939;51.426;6.972;2023-02-18T04:36:41;11.40;99.90
1878;DHT22;939;51.426;6.972;2023-02-18T04:39:09;11.30;99.90
1878;DHT22;939;51.426;6.972;2023-02-18T04:41:38;11.20;99.90
1878;DHT22;939;51.426;6.972;2023-02-18T04:44:05;11.20;99.90
1878;DHT22;939;51.426;6.972;2023-02-18T04:46:32;11.30;99.90
1878;DHT22;939;51.426;6.972;2023-02-18T04:49:03;11.30;99.90
1878;DHT22;939;51.426;6.972;2023-02-18T04:51:33;11.30;99.90
1878;DHT22;939;51.426;6.972;2023-02-18T04:54:03;11.40;99.90
1878;DHT22;939;51.426;6.972;2023-02-18T04:56:30;11.40;99.90
1878;DHT22;939;51.426;6.972;2023-02-18T04:58:57;11.30;99.90
1878;DHT22;939;51.426;6.972;2023-02-18T05:01:52;11.20;99.90
1878;DHT22;939;51.426;6.972;2023-02-18T05:04:32;11.20;99.90
1878;DHT22;939;51.426;6.972;2023-02-18T05:07:04;11.20;99.90
1878;DHT22;939;51.426;6.972;2023-02-18T05:09:40;11.10;99.90
1878;DHT22;939;51.426;6.972;2023-02-18T05:12:13;11.10;99.90
1878;DHT22;939;51.426;6.972;2023-02-18T05:14:41;11.20;99.90
1878;DHT22;939;51.426;6.972;2023-02-18T05:17:10;11.10;99.90
1878;DHT22;939;51.426;6.972;2023-02-18T05:19:42;11.10;99.90
1878;DHT22;939;51.426;6.972;2023-02-18T05:22:09;11.10;99.90
1878;DHT22;939;51.426;6.972;2023-02-18T05:24:39;11.10;99.90
1878;DHT22;939;51.426;6.972;2023-02-18T05:27:07;11.10;99.90
1878;DHT22;939;51.426;6.972;2023-02-18T05:29:34;11.00;99.90
1878;DHT22;939;51.426;6.972;2023-02-18T05:32:05;10.90;99.90
1878;DHT22;939;51.426;6.972;2023-02-18T05:34:32;11.00;99.90
1878;DHT22;939;51.426;6.972;2023-02-18T05:37:00;11.00;99.90
1878;DHT22;939;51.426;6.972;2023-02-18T05:39:27;11.00;99.90
1878;DHT22;939;51.426;6.972;2023-02-18T05:42:03;11.10;99.90
1878;DHT22;939;51.426;6.972;2023-02-18T05:44:30;11.00;99.90
1878;DHT22;939;51.426;6.972;2023-02-18T05:46:59;11.00;99.90
1878;DHT22;939;51.426;6.972;2023-02-18T05:49:28;11.00;99.90
1878;DHT22;939;51.426;6.972;2023-02-18T05:51:56;11.00;99.90
1878;DHT22;939;51.426;6.972;2023-02-18T05:54:27;11.00;99.90
1878;DHT22;939;51.426;6.972;2023-02-18T05:56:59;10.90;99.90
1878;DHT22;939;51.426;6.972;2023-02-18T05:59:27;11.00;99.90
1878;DHT22;939;51.426;6.972;2023-02-18T06:02:00;11.00;99.90
1878;DHT22;939;51.426;6.972;2023-02-18T06:04:34;10.90;99.90
1878;DHT22;939;51.426;6.972;2023-02-18T06:07:13;11.00;99.90
1878;DHT22;939;51.426;6.972;2023-02-18T06:09:42;11.00;99.90
1878;DHT22;939;51.426;6.972;2023-02-18T06:12:09;11.00;99.90
1878;DHT22;939;51.426;6.972;2023-02-18T06:14:36;10.90;99.90
1878;DHT22;939;51.426;6.972;2023-02-18T06:17:06;10.90;99.90
1878;DHT22;939;51.426;6.972;2023-02-18T06:19:36;10.90;99.90
1878;DHT22;939;51.426;6.972;2023-02-18T06:22:05;10.90;99.90
1878;DHT22;939;51.426;6.972;2023-02-18T06:24:36;10.80;99.90
1878;DHT22;939;51.426;6.972;2023-02-18T06:27:05;10.80;99.90
1878;DHT22;939;51.426;6.972;2023-02-18T06:29:35;10.80;99.90
1878;DHT22;939;51.426;6.972;2023-02-18T06:32:02;10.80;99.90
1878;DHT22;939;51.426;6.972;2023-02-18T06:34:35;10.80;99.90
1878;DHT22;939;51.426;6.972;2023-02-18T06:37:06;10.80;99.90
1878;DHT22;939;51.426;6.972;2023-02-18T06:39:35;10.80;99.90
1878;DHT22;939;51.426;6.972;2023-02-18T06:42:03;10.80;99.90
1878;DHT22;939;51.426;6.972;2023-02-18T06:44:36;10.80;99.90
1878;DHT22;939;51.426;6.972;2023-02-18T06:47:04;10.80;99.90
1878;DHT22;939;51.426;6.972;2023-02-18T06:49:32;10.80;99.90
1878;DHT22;939;51.426;6.972;2023-02-18T06:52:04;10.70;99.90
1878;DHT22;939;51.426;6.972;2023-02-18T06:54:32;10.70;99.90
1878;DHT22;939;51.426;6.972;2023-02-18T06:56:59;10.70;99.90
1878;DHT22;939;51.426;6.972;2023-02-18T06:59:29;10.70;99.90
1878;DHT22;939;51.426;6.972;2023-02-18T07:01:56;10.70;99.90
1878;DHT22;939;51.426;6.972;2023-02-18T07:04:28;10.80;99.90
1878;DHT22;939;51.426;6.972;2023-02-18T07:06:57;10.70;99.90
1878;DHT22;939;51.426;6.972;2023-02-18T07:09:24;10.60;99.90
1878;DHT22;939;51.426;6.972;2023-02-18T07:11:51;10.70;99.90
1878;DHT22;939;51.426;6.972;2023-02-18T07:14:18;10.70;99.90
1878;DHT22;939;51.426;6.972;2023-02-18T07:16:47;10.70;99.90
1878;DHT22;939;51.426;6.972;2023-02-18T07:19:16;10.70;99.90
1878;DHT22;939;51.426;6.972;2023-02-18T07:21:48;10.70;99.90
1878;DHT22;939;51.426;6.972;2023-02-18T07:24:18;10.80;99.90
1878;DHT22;939;51.426;6.972;2023-02-18T07:26:45;10.80;99.90
1878;DHT22;939;51.426;6.972;2023-02-18T07:29:20;10.70;99.90
1878;DHT22;939;51.426;6.972;2023-02-18T07:31:51;10.70;99.90
1878;DHT22;939;51.426;6.972;2023-02-18T07:34:18;10.70;99.90
1878;DHT22;939;51.426;6.972;2023-02-18T07:36:55;10.70;99.90
1878;DHT22;939;51.426;6.972;2023-02-18T07:39:45;10.70;99.90
1878;DHT22;939;51.426;6.972;2023-02-18T07:42:13;10.70;99.90
1878;DHT22;939;51.426;6.972;2023-02-18T07:44:50;10.80;99.90
1878;DHT22;939;51.426;6.972;2023-02-18T07:47:36;10.70;99.90
1878;DHT22;939;51.426;6.972;2023-02-18T07:50:12;10.70;99.90
1878;DHT22;939;51.426;6.972;2023-02-18T07:52:44;10.70;99.90
1878;DHT22;939;51.426;6.972;2023-02-18T07:55:19;10.80;99.90
1878;DHT22;939;51.426;6.972;2023-02-18T07:57:48;10.80;99.90
1878;DHT22;939;51.426;6.972;2023-02-18T08:00:28;10.80;99.90
1878;DHT22;939;51.426;6.972;2023-02-18T08:03:00;10.70;99.90
1878;DHT22;939;51.426;6.972;2023-02-18T08:05:32;10.70;99.90
1878;DHT22;939;51.426;6.972;2023-02-18T08:07:59;10.70;99.90
1878;DHT22;939;51.426;6.972;2023-02-18T08:10:26;10.60;99.90
1878;DHT22;939;51.426;6.972;2023-02-18T08:12:57;10.60;99.90
1878;DHT22;939;51.426;6.972;2023-02-18T08:15:24;10.60;99.90
1878;DHT22;939;51.426;6.972;2023-02-18T08:17:52;10.60;99.90
1878;DHT22;939;51.426;6.972;2023-02-18T08:20:22;10.70;99.90
1878;DHT22;939;51.426;6.972;2023-02-18T08:22:51;10.60;99.90
1878;DHT22;939;51.426;6.972;2023-02-18T08:25:26;10.50;99.90
1878;DHT22;939;51.426;6.972;2023-02-18T08:27:53;10.50;99.90
1878;DHT22;939;51.426;6.972;2023-02-18T08:30:25;10.60;99.90
1878;DHT22;939;51.426;6.972;2023-02-18T08:32:57;10.50;99.90
1878;DHT22;939;51.426;6.972;2023-02-18T08:35:33;10.60;99.90
1878;DHT22;939;51.426;6.972;2023-02-18T08:38:01;10.60;99.90
1878;DHT22;939;51.426;6.972;2023-02-18T08:40:32;10.60;99.90
1878;DHT22;939;51.426;6.972;2023-02-18T08:42:59;10.70;99.90
1878;DHT22;939;51.426;6.972;2023-02-18T08:45:37;10.60;99.90
1878;DHT22;939;51.426;6.972;2023-02-18T08:48:09;10.50;99.90
1878;DHT22;939;51.426;6.972;2023-02-18T08:50:41;10.50;99.90
1878;DHT22;939;51.426;6.972;2023-02-18T08:53:09;10.40;99.90
1878;DHT22;939;51.426;6.972;2023-02-18T08:55:46;10.30;99.90
1878;DHT22;939;51.426;6.972;2023-02-18T08:58:13;10.30;99.90
1878;DHT22;939;51.426;6.972;2023-02-18T09:00:46;10.30;99.90
1878;DHT22;939;51.426;6.972;2023-02-18T09:03:14;10.30;99.90
1878;DHT22;939;51.426;6.972;2023-02-18T09:05:46;10.30;99.90
1878;DHT22;939;51.426;6.972;2023-02-18T09:11:07;10.30;99.90
1878;DHT22;939;51.426;6.972;2023-02-18T09:13:42;10.30;99.90
1878;DHT22;939;51.426;6.972;2023-02-18T09:16:12;10.30;99.90
1878;DHT22;939;51.426;6.972;2023-02-18T09:18:41;10.30;99.90
1878;DHT22;939;51.426;6.972;2023-02-18T09:21:13;10.40;99.90
1878;DHT22;939;51.426;6.972;2023-02-18T09:23:47;10.40;99.90
1878;DHT22;939;51.426;6.972;2023-02-18T09:26:18;10.40;99.90
1878;DHT22;939;51.426;6.972;2023-02-18T09:28:52;10.40;99.90
1878;DHT22;939;51.426;6.972;2023-02-18T09:31:26;10.40;99.90
1878;DHT22;939;51.426;6.972;2023-02-18T09:34:04;10.40;99.90
1878;DHT22;939;51.426;6.972;2023-02-18T09:36:55;10.40;99.90
1878;DHT22;939;51.426;6.972;2023-02-18T09:39:28;10.40;99.90
1878;DHT22;939;51.426;6.972;2023-02-18T09:42:17;10.40;99.90
1878;DHT22;939;51.426;6.972;2023-02-18T09:47:56;10.30;99.90
1878;DHT22;939;51.426;6.972;2023-02-18T09:50:29;10.30;99.90
1878;DHT22;939;51.426;6.972;2023-02-18T09:53:03;10.30;99.90
1878;DHT22;939;51.426;6.972;2023-02-18T09:55:40;10.30;99.90
1878;DHT22;939;51.426;6.972;2023-02-18T09:58:16;10.30;99.90
1878;DHT22;939;51.426;6.972;2023-02-18T10:00:48;10.30;99.90
1878;DHT22;939;51.426;6.972;2023-02-18T10:03:20;10.30;99.90
1878;DHT22;939;51.426;6.972;2023-02-18T10:05:59;10.30;99.90
1878;DHT22;939;51.426;6.972;2023-02-18T10:08:41;10.30;99.90
1878;DHT22;939;51.426;6.972;2023-02-18T10:11:13;10.30;99.90
1878;DHT22;939;51.426;6.972;2023-02-18T10:13:52;10.40;99.90
1878;DHT22;939;51.426;6.972;2023-02-18T10:16:23;10.50;99.90
1878;DHT22;939;51.426;6.972;2023-02-18T10:18:54;10.50;99.90
1878;DHT22;939;51.426;6.972;2023-02-18T10:21:25;10.50;99.90
1878;DHT22;939;51.426;6.972;2023-02-18T10:24:00;10.50;99.90
1878;DHT22;939;51.426;6.972;2023-02-18T10:29:36;10.40;99.90
1878;DHT22;939;51.426;6.972;2023-02-18T10:32:11;10.40;99.90
1878;DHT22;939;51.426;6.972;2023-02-18T10:35:01;10.30;99.90
1878;DHT22;939;51.426;6.972;2023-02-18T10:37:51;10.40;99.90
1878;DHT22;939;51.426;6.972;2023-02-18T10:40:57;10.40;99.90
1878;DHT22;939;51.426;6.972;2023-02-18T10:43:52;10.40;99.90
1878;DHT22;939;51.426;6.972;2023-02-18T10:46:45;10.40;99.90
1878;DHT22;939;51.426;6.972;2023-02-18T10:49:30;10.40;99.90
1878;DHT22;939;51.426;6.972;2023-02-18T10:52:04;10.50;99.90
1878;DHT22;939;51.426;6.972;2023-02-18T10:55:50;10.40;99.90
1878;DHT22;939;51.426;6.972;2023-02-18T10:58:35;10.50;99.90
1878;DHT22;939;51.426;6.972;2023-02-18T11:04:19;10.30;99.90
1878;DHT22;939;51.426;6.972;2023-02-18T11:06:53;10.30;99.90
1878;DHT22;939;51.426;6.972;2023-02-18T11:09:28;10.20;99.90
1878;DHT22;939;51.426;6.972;2023-02-18T11:12:21;10.20;99.90
1878;DHT22;939;51.426;6.972;2023-02-18T11:15:14;10.10;99.90
1878;DHT22;939;51.426;6.972;2023-02-18T11:17:46;10.20;99.90
1878;DHT22;939;51.426;6.972;2023-02-18T11:20:26;10.20;99.90
1878;DHT22;939;51.426;6.972;2023-02-18T11:23:15;10.20;99.90
1878;DHT22;939;51.426;6.972;2023-02-18T11:26:00;10.20;99.90
1878;DHT22;939;51.426;6.972;2023-02-18T11:28:55;10.30;99.90
1878;DHT22;939;51.426;6.972;2023-02-18T11:31:39;10.30;99.90
1878;DHT22;939;51.426;6.972;2023-02-18T11:34:30;10.20;99.90
1878;DHT22;939;51.426;6.972;2023-02-18T11:37:09;10.30;99.90
1878;DHT22;939;51.426;6.972;2023-02-18T11:39:36;10.20;99.90
1878;DHT22;939;51.426;6.972;2023-02-18T11:42:14;10.20;99.90
1878;DHT22;939;51.426;6.972;2023-02-18T11:44:49;10.30;99.90
1878;DHT22;939;51.426;6.972;2023-02-18T11:47:25;10.30;99.90
1878;DHT22;939;51.426;6.972;2023-02-18T11:50:19;10.30;99.90
1878;DHT22;939;51.426;6.972;2023-02-18T11:52:48;10.20;99.90
1878;DHT22;939;51.426;6.972;2023-02-18T11:55:21;10.20;99.90
1878;DHT22;939;51.426;6.972;2023-02-18T11:57:54;10.20;99.90
1878;DHT22;939;51.426;6.972;2023-02-18T12:00:24;10.20;99.90
1878;DHT22;939;51.426;6.972;2023-02-18T12:02:58;10.20;99.90
1878;DHT22;939;51.426;6.972;2023-02-18T12:05:28;10.20;99.90
1878;DHT22;939;51.426;6.972;2023-02-18T12:08:04;10.30;99.90
1878;DHT22;939;51.426;6.972;2023-02-18T12:10:35;10.40;99.90
1878;DHT22;939;51.426;6.972;2023-02-18T12:13:07;10.50;99.90
1878;DHT22;939;51.426;6.972;2023-02-18T12:15:51;10.50;99.90
1878;DHT22;939;51.426;6.972;2023-02-18T12:21:29;10.40;99.90
1878;DHT22;939;51.426;6.972;2023-02-18T12:24:08;10.30;99.90
1878;DHT22;939;51.426;6.972;2023-02-18T12:26:50;10.30;99.90
1878;DHT22;939;51.426;6.972;2023-02-18T12:29:46;10.30;99.90
1878;DHT22;939;51.426;6.972;2023-02-18T12:32:31;10.30;99.90
1878;DHT22;939;51.426;6.972;2023-02-18T12:38:42;10.30;99.90
1878;DHT22;939;51.426;6.972;2023-02-18T12:41:26;10.40;99.90
1878;DHT22;939;51.426;6.972;2023-02-18T12:44:08;10.40;99.90
1878;DHT22;939;51.426;6.972;2023-02-18T12:46:53;10.40;99.90
1878;DHT22;939;51.426;6.972;2023-02-18T12:49:45;10.40;99.90
1878;DHT22;939;51.426;6.972;2023-02-18T12:52:26;10.40;99.90
1878;DHT22;939;51.426;6.972;2023-02-18T12:55:20;10.40;99.90
1878;DHT22;939;51.426;6.972;2023-02-18T12:58:07;10.50;99.90
1878;DHT22;939;51.426;6.972;2023-02-18T13:00:59;10.50;99.90
1878;DHT22;939;51.426;6.972;2023-02-18T13:03:48;10.50;99.90
1878;DHT22;939;51.426;6.972;2023-02-18T13:06:41;10.50;99.90
1878;DHT22;939;51.426;6.972;2023-02-18T13:09:18;10.40;99.90
1878;DHT22;939;51.426;6.972;2023-02-18T13:11:53;10.50;99.90
1878;DHT22;939;51.426;6.972;2023-02-18T13:14:23;10.50;99.90
1878;DHT22;939;51.426;6.972;2023-02-18T13:16:56;10.50;99.90
1878;DHT22;939;51.426;6.972;2023-02-18T13:19:26;10.50;99.90
1878;DHT22;939;51.426;6.972;2023-02-18T13:21:58;10.50;99.90
1878;DHT22;939;51.426;6.972;2023-02-18T13:24:33;10.50;99.90
1878;DHT22;939;51.426;6.972;2023-02-18T13:27:11;10.50;99.90
1878;DHT22;939;51.426;6.972;2023-02-18T13:29:46;10.60;99.90
1878;DHT22;939;51.426;6.972;2023-02-18T13:32:21;10.60;99.90
1878;DHT22;939;51.426;6.972;2023-02-18T13:34:55;10.70;99.90
1878;DHT22;939;51.426;6.972;2023-02-18T13:37:30;10.70;99.90
1878;DHT22;939;51.426;6.972;2023-02-18T13:40:01;10.60;99.90
1878;DHT22;939;51.426;6.972;2023-02-18T13:42:36;10.60;99.90
1878;DHT22;939;51.426;6.972;2023-02-18T13:45:05;10.60;99.90
1878;DHT22;939;51.426;6.972;2023-02-18T13:47:47;10.60;99.90
1878;DHT22;939;51.426;6.972;2023-02-18T13:50:32;10.60;99.90
1878;DHT22;939;51.426;6.972;2023-02-18T13:53:22;10.60;99.90
1878;DHT22;939;51.426;6.972;2023-02-18T13:55:55;10.70;99.90
1878;DHT22;939;51.426;6.972;2023-02-18T13:58:28;10.60;99.90
1878;DHT22;939;51.426;6.972;2023-02-18T14:01:03;10.60;99.90
1878;DHT22;939;51.426;6.972;2023-02-18T14:03:49;10.60;99.90
1878;DHT22;939;51.426;6.972;2023-02-18T14:06:18;10.70;99.90
1878;DHT22;939;51.426;6.972;2023-02-18T14:08:46;10.70;99.90
1878;DHT22;939;51.426;6.972;2023-02-18T14:11:33;10.70;99.90
1878;DHT22;939;51.426;6.972;2023-02-18T14:17:41;10.70;99.90
1878;DHT22;939;51.426;6.972;2023-02-18T14:23:38;10.70;99.90
1878;DHT22;939;51.426;6.972;2023-02-18T14:26:07;10.70;99.90
1878;DHT22;939;51.426;6.972;2023-02-18T14:28:43;10.80;99.90
1878;DHT22;939;51.426;6.972;2023-02-18T14:31:24;10.80;99.90
1878;DHT22;939;51.426;6.972;2023-02-18T14:34:04;10.80;99.90
1878;DHT22;939;51.426;6.972;2023-02-18T14:36:40;10.80;99.90
1878;DHT22;939;51.426;6.972;2023-02-18T14:39:29;10.90;99.90
1878;DHT22;939;51.426;6.972;2023-02-18T14:42:04;10.90;99.90
1878;DHT22;939;51.426;6.972;2023-02-18T14:44:47;10.90;99.90
1878;DHT22;939;51.426;6.972;2023-02-18T14:47:25;10.90;99.90
1878;DHT22;939;51.426;6.972;2023-02-18T14:49:58;10.90;99.90
1878;DHT22;939;51.426;6.972;2023-02-18T14:52:31;10.90;99.90
1878;DHT22;939;51.426;6.972;2023-02-18T14:55:06;10.90;99.90
1878;DHT22;939;51.426;6.972;2023-02-18T15:00:26;11.00;99.90
1878;DHT22;939;51.426;6.972;2023-02-18T15:02:57;11.00;99.90
1878;DHT22;939;51.426;6.972;2023-02-18T15:05:27;11.00;99.90
1878;DHT22;939;51.426;6.972;2023-02-18T15:07:56;11.00;99.90
1878;DHT22;939;51.426;6.972;2023-02-18T15:10:55;11.00;99.90
1878;DHT22;939;51.426;6.972;2023-02-18T15:13:26;11.00;99.90
1878;DHT22;939;51.426;6.972;2023-02-18T15:16:17;11.00;99.90
1878;DHT22;939;51.426;6.972;2023-02-18T15:18:59;11.10;99.90
1878;DHT22;939;51.426;6.972;2023-02-18T15:21:34;11.10;99.90
1878;DHT22;939;51.426;6.972;2023-02-18T15:24:05;11.00;99.90
1878;DHT22;939;51.426;6.972;2023-02-18T15:26:34;11.00;99.90
1878;DHT22;939;51.426;6.972;2023-02-18T15:29:04;11.00;99.90
1878;DHT22;939;51.426;6.972;2023-02-18T15:32:13;11.00;99.90
1878;DHT22;939;51.426;6.972;2023-02-18T15:34:43;11.00;99.90
1878;DHT22;939;51.426;6.972;2023-02-18T15:37:14;11.00;99.90
1878;DHT22;939;51.426;6.972;2023-02-18T15:39:42;11.10;99.90
1878;DHT22;939;51.426;6.972;2023-02-18T16:08:37;11.10;99.90
1878;DHT22;939;51.426;6.972;2023-02-18T16:11:08;11.00;99.90
1878;DHT22;939;51.426;6.972;2023-02-18T16:13:43;10.90;99.90
1878;DHT22;939;51.426;6.972;2023-02-18T16:16:21;10.90;99.90
1878;DHT22;939;51.426;6.972;2023-02-18T16:18:49;11.00;99.90
1878;DHT22;939;51.426;6.972;2023-02-18T16:21:28;11.10;99.90
1878;DHT22;939;51.426;6.972;2023-02-18T16:24:02;11.20;99.90
1878;DHT22;939;51.426;6.972;2023-02-18T16:26:39;11.10;99.90
1878;DHT22;939;51.426;6.972;2023-02-18T16:29:39;11.10;99.90
1878;DHT22;939;51.426;6.972;2023-02-18T16:32:08;11.10;99.90
1878;DHT22;939;51.426;6.972;2023-02-18T16:34:37;11.10;99.90
1878;DHT22;939;51.426;6.972;2023-02-18T16:37:08;11.20;99.90
1878;DHT22;939;51.426;6.972;2023-02-18T16:39:54;11.20;99.90
1878;DHT22;939;51.426;6.972;2023-02-18T16:42:24;11.20;99.90
1878;DHT22;939;51.426;6.972;2023-02-18T16:45:04;11.20;99.90
1878;DHT22;939;51.426;6.972;2023-02-18T16:47:41;11.20;99.90
1878;DHT22;939;51.426;6.972;2023-02-18T16:50:13;11.10;99.90
1878;DHT22;939;51.426;6.972;2023-02-18T16:52:59;11.10;99.90
1878;DHT22;939;51.426;6.972;2023-02-18T16:55:39;11.20;99.90
1878;DHT22;939;51.426;6.972;2023-02-18T16:58:07;11.20;99.90
1878;DHT22;939;51.426;6.972;2023-02-18T17:00:37;11.10;99.90
1878;DHT22;939;51.426;6.972;2023-02-18T17:03:10;11.10;99.90
1878;DHT22;939;51.426;6.972;2023-02-18T17:05:38;11.10;99.90
1878;DHT22;939;51.426;6.972;2023-02-18T17:08:14;11.10;99.90
1878;DHT22;939;51.426;6.972;2023-02-18T17:10:46;11.20;99.90
1878;DHT22;939;51.426;6.972;2023-02-18T17:13:21;11.20;99.90
1878;DHT22;939;51.426;6.972;2023-02-18T17:15:57;11.10;99.90
1878;DHT22;939;51.426;6.972;2023-02-18T17:18:25;11.10;99.90
1878;DHT22;939;51.426;6.972;2023-02-18T17:20:55;11.10;99.90
1878;DHT22;939;51.426;6.972;2023-02-18T17:23:23;11.10;99.90
1878;DHT22;939;51.426;6.972;2023-02-18T17:25:53;11.10;99.90
1878;DHT22;939;51.426;6.972;2023-02-18T17:28:20;11.10;99.90
1878;DHT22;939;51.426;6.972;2023-02-18T17:30:50;11.20;99.90
1878;DHT22;939;51.426;6.972;2023-02-18T17:33:18;11.20;99.90
1878;DHT22;939;51.426;6.972;2023-02-18T17:35:52;11.20;99.90
1878;DHT22;939;51.426;6.972;2023-02-18T17:38:19;11.20;99.90
1878;DHT22;939;51.426;6.972;2023-02-18T17:40:48;11.20;99.90
1878;DHT22;939;51.426;6.972;2023-02-18T17:43:17;11.20;99.90
1878;DHT22;939;51.426;6.972;2023-02-18T17:45:47;11.20;99.90
1878;DHT22;939;51.426;6.972;2023-02-18T17:48:14;11.20;99.90
1878;DHT22;939;51.426;6.972;2023-02-18T17:50:49;11.30;99.90
1878;DHT22;939;51.426;6.972;2023-02-18T17:53:19;11.20;99.90
1878;DHT22;939;51.426;6.972;2023-02-18T17:55:47;11.20;99.90
1878;DHT22;939;51.426;6.972;2023-02-18T17:58:16;11.30;99.90
1878;DHT22;939;51.426;6.972;2023-02-18T18:00:46;11.30;99.90
1878;DHT22;939;51.426;6.972;2023-02-18T18:03:13;11.30;99.90
1878;DHT22;939;51.426;6.972;2023-02-18T18:05:42;11.30;99.90
1878;DHT22;939;51.426;6.972;2023-02-18T18:08:10;11.30;99.90